sensor_id;sensor_type;location;lat;lon;timestamp;P1;durP1;ratioP1;P2;durP2;ratioP2
56567;SDS011;42456;49.956;20.004;2023-07-28T00:02:00;3.60;;;2.90;;
56567;SDS011;42456;49.956;20.004;2023-07-28T00:04:27;5.70;;;2.80;;
56567;SDS011;42456;49.956;20.004;2023-07-28T00:06:54;3.70;;;2.80;;
56567;SDS011;42456;49.956;20.004;2023-07-28T00:09:21;4.20;;;2.50;;
56567;SDS011;42456;49.956;20.004;2023-07-28T00:11:49;2.60;;;2.20;;
56567;SDS011;42456;49.956;20.004;2023-07-28T00:14:16;7.00;;;2.40;;
56567;SDS011;42456;49.956;20.004;2023-07-28T00:16:43;5.20;;;2.70;;
56567;SDS011;42456;49.956;20.004;2023-07-28T00:19:10;5.20;;;2.80;;
56567;SDS011;42456;49.956;20.004;2023-07-28T00:21:37;3.90;;;3.00;;
56567;SDS011;42456;49.956;20.004;2023-07-28T00:24:04;4.10;;;2.80;;
56567;SDS011;42456;49.956;20.004;2023-07-28T00:26:31;6.20;;;2.60;;
56567;SDS011;42456;49.956;20.004;2023-07-28T00:28:58;2.70;;;2.40;;
56567;SDS011;42456;49.956;20.004;2023-07-28T00:31:25;3.30;;;2.70;;
56567;SDS011;42456;49.956;20.004;2023-07-28T00:33:52;3.20;;;2.60;;
56567;SDS011;42456;49.956;20.004;2023-07-28T00:36:19;3.50;;;2.60;;
56567;SDS011;42456;49.956;20.004;2023-07-28T00:38:46;4.50;;;2.90;;
56567;SDS011;42456;49.956;20.004;2023-07-28T00:41:13;3.60;;;2.70;;
56567;SDS011;42456;49.956;20.004;2023-07-28T00:43:40;4.10;;;2.70;;
56567;SDS011;42456;49.956;20.004;2023-07-28T00:46:08;4.00;;;2.60;;
56567;SDS011;42456;49.956;20.004;2023-07-28T00:48:36;5.10;;;2.50;;
56567;SDS011;42456;49.956;20.004;2023-07-28T00:51:03;4.90;;;2.50;;
56567;SDS011;42456;49.956;20.004;2023-07-28T00:53:31;4.20;;;2.70;;
56567;SDS011;42456;49.956;20.004;2023-07-28T00:55:58;3.70;;;2.50;;
56567;SDS011;42456;49.956;20.004;2023-07-28T00:58:25;4.10;;;2.70;;
56567;SDS011;42456;49.956;20.004;2023-07-28T01:00:52;3.60;;;2.40;;
56567;SDS011;42456;49.956;20.004;2023-07-28T01:03:19;4.10;;;2.60;;
56567;SDS011;42456;49.956;20.004;2023-07-28T01:11:32;6.40;;;2.90;;
56567;SDS011;42456;49.956;20.004;2023-07-28T01:13:59;5.60;;;2.60;;
56567;SDS011;42456;49.956;20.004;2023-07-28T01:16:25;2.70;;;2.40;;
56567;SDS011;42456;49.956;20.004;2023-07-28T01:18:53;3.40;;;2.50;;
56567;SDS011;42456;49.956;20.004;2023-07-28T01:21:20;3.30;;;2.40;;
56567;SDS011;42456;49.956;20.004;2023-07-28T01:26:33;4.80;;;2.50;;
56567;SDS011;42456;49.956;20.004;2023-07-28T01:29:03;3.80;;;2.50;;
56567;SDS011;42456;49.956;20.004;2023-07-28T01:31:31;2.60;;;2.40;;
56567;SDS011;42456;49.956;20.004;2023-07-28T01:33:58;5.50;;;2.90;;
56567;SDS011;42456;49.956;20.004;2023-07-28T01:36:25;3.30;;;2.50;;
56567;SDS011;42456;49.956;20.004;2023-07-28T01:38:52;4.20;;;2.30;;
56567;SDS011;42456;49.956;20.004;2023-07-28T01:41:20;3.40;;;2.50;;
56567;SDS011;42456;49.956;20.004;2023-07-28T01:43:47;2.40;;;2.20;;
56567;SDS011;42456;49.956;20.004;2023-07-28T01:46:14;3.80;;;2.20;;
56567;SDS011;42456;49.956;20.004;2023-07-28T01:48:41;3.90;;;2.70;;
56567;SDS011;42456;49.956;20.004;2023-07-28T01:51:08;4.00;;;2.40;;
56567;SDS011;42456;49.956;20.004;2023-07-28T01:53:35;6.90;;;2.60;;
56567;SDS011;42456;49.956;20.004;2023-07-28T01:56:02;4.30;;;2.40;;
56567;SDS011;42456;49.956;20.004;2023-07-28T01:58:29;2.80;;;2.40;;
56567;SDS011;42456;49.956;20.004;2023-07-28T02:00:56;4.30;;;2.30;;
56567;SDS011;42456;49.956;20.004;2023-07-28T02:03:23;3.90;;;2.50;;
56567;SDS011;42456;49.956;20.004;2023-07-28T02:05:49;3.30;;;2.40;;
56567;SDS011;42456;49.956;20.004;2023-07-28T02:08:16;3.20;;;2.40;;
56567;SDS011;42456;49.956;20.004;2023-07-28T02:10:44;3.60;;;2.50;;
56567;SDS011;42456;49.956;20.004;2023-07-28T02:13:11;7.20;;;2.80;;
56567;SDS011;42456;49.956;20.004;2023-07-28T02:15:37;3.80;;;2.40;;
56567;SDS011;42456;49.956;20.004;2023-07-28T02:18:06;5.80;;;2.40;;
56567;SDS011;42456;49.956;20.004;2023-07-28T02:20:34;4.30;;;2.50;;
56567;SDS011;42456;49.956;20.004;2023-07-28T02:23:02;2.90;;;2.40;;
56567;SDS011;42456;49.956;20.004;2023-07-28T02:25:29;3.30;;;2.10;;
56567;SDS011;42456;49.956;20.004;2023-07-28T02:27:56;3.20;;;2.50;;
56567;SDS011;42456;49.956;20.004;2023-07-28T02:30:24;2.60;;;2.20;;
56567;SDS011;42456;49.956;20.004;2023-07-28T02:32:51;2.50;;;2.30;;
56567;SDS011;42456;49.956;20.004;2023-07-28T02:35:18;3.60;;;2.50;;
56567;SDS011;42456;49.956;20.004;2023-07-28T02:37:47;3.20;;;2.40;;
56567;SDS011;42456;49.956;20.004;2023-07-28T02:40:14;4.50;;;2.40;;
56567;SDS011;42456;49.956;20.004;2023-07-28T02:42:41;3.20;;;2.50;;
56567;SDS011;42456;49.956;20.004;2023-07-28T02:45:08;4.40;;;2.70;;
56567;SDS011;42456;49.956;20.004;2023-07-28T02:47:36;4.00;;;2.50;;
56567;SDS011;42456;49.956;20.004;2023-07-28T02:50:04;2.60;;;2.00;;
56567;SDS011;42456;49.956;20.004;2023-07-28T02:52:31;2.80;;;2.10;;
56567;SDS011;42456;49.956;20.004;2023-07-28T02:54:58;3.00;;;2.40;;
56567;SDS011;42456;49.956;20.004;2023-07-28T02:57:25;2.70;;;2.30;;
56567;SDS011;42456;49.956;20.004;2023-07-28T02:59:52;2.90;;;2.30;;
56567;SDS011;42456;49.956;20.004;2023-07-28T03:02:19;5.80;;;2.50;;
56567;SDS011;42456;49.956;20.004;2023-07-28T03:04:45;4.50;;;2.60;;
56567;SDS011;42456;49.956;20.004;2023-07-28T03:07:12;3.30;;;2.40;;
56567;SDS011;42456;49.956;20.004;2023-07-28T03:09:39;5.30;;;2.30;;
56567;SDS011;42456;49.956;20.004;2023-07-28T03:12:06;5.70;;;2.50;;
56567;SDS011;42456;49.956;20.004;2023-07-28T03:14:34;4.50;;;2.50;;
56567;SDS011;42456;49.956;20.004;2023-07-28T03:17:00;6.00;;;2.60;;
56567;SDS011;42456;49.956;20.004;2023-07-28T03:19:27;3.10;;;2.40;;
56567;SDS011;42456;49.956;20.004;2023-07-28T03:21:54;2.90;;;2.40;;
56567;SDS011;42456;49.956;20.004;2023-07-28T03:24:21;3.20;;;2.30;;
56567;SDS011;42456;49.956;20.004;2023-07-28T03:26:48;5.20;;;2.50;;
56567;SDS011;42456;49.956;20.004;2023-07-28T03:29:14;4.40;;;2.40;;
56567;SDS011;42456;49.956;20.004;2023-07-28T03:31:41;4.80;;;2.50;;
56567;SDS011;42456;49.956;20.004;2023-07-28T03:34:08;5.00;;;2.20;;
56567;SDS011;42456;49.956;20.004;2023-07-28T03:36:35;4.40;;;2.50;;
56567;SDS011;42456;49.956;20.004;2023-07-28T03:39:02;3.80;;;2.40;;
56567;SDS011;42456;49.956;20.004;2023-07-28T03:41:29;3.90;;;2.40;;
56567;SDS011;42456;49.956;20.004;2023-07-28T03:43:56;2.80;;;2.20;;
56567;SDS011;42456;49.956;20.004;2023-07-28T03:46:23;2.90;;;2.40;;
56567;SDS011;42456;49.956;20.004;2023-07-28T03:48:50;4.80;;;2.40;;
56567;SDS011;42456;49.956;20.004;2023-07-28T03:51:18;2.70;;;2.30;;
56567;SDS011;42456;49.956;20.004;2023-07-28T03:53:45;13.90;;;2.50;;
56567;SDS011;42456;49.956;20.004;2023-07-28T03:56:12;3.90;;;2.40;;
56567;SDS011;42456;49.956;20.004;2023-07-28T03:58:38;2.90;;;2.20;;
56567;SDS011;42456;49.956;20.004;2023-07-28T04:01:05;4.30;;;2.50;;
56567;SDS011;42456;49.956;20.004;2023-07-28T04:03:34;5.40;;;2.80;;
56567;SDS011;42456;49.956;20.004;2023-07-28T04:06:04;2.80;;;2.20;;
56567;SDS011;42456;49.956;20.004;2023-07-28T04:08:33;3.30;;;2.40;;
56567;SDS011;42456;49.956;20.004;2023-07-28T04:11:00;3.10;;;2.40;;
56567;SDS011;42456;49.956;20.004;2023-07-28T04:13:27;2.40;;;2.10;;
56567;SDS011;42456;49.956;20.004;2023-07-28T04:15:53;3.60;;;2.60;;
56567;SDS011;42456;49.956;20.004;2023-07-28T04:18:20;3.90;;;2.40;;
56567;SDS011;42456;49.956;20.004;2023-07-28T04:20:47;4.20;;;2.40;;
56567;SDS011;42456;49.956;20.004;2023-07-28T04:23:14;3.00;;;2.30;;
56567;SDS011;42456;49.956;20.004;2023-07-28T04:25:41;6.40;;;2.20;;
56567;SDS011;42456;49.956;20.004;2023-07-28T04:28:08;4.40;;;2.50;;
56567;SDS011;42456;49.956;20.004;2023-07-28T04:30:35;2.60;;;2.20;;
56567;SDS011;42456;49.956;20.004;2023-07-28T04:33:02;3.50;;;2.70;;
56567;SDS011;42456;49.956;20.004;2023-07-28T04:35:29;2.80;;;2.40;;
56567;SDS011;42456;49.956;20.004;2023-07-28T04:37:57;5.30;;;2.50;;
56567;SDS011;42456;49.956;20.004;2023-07-28T04:40:23;3.30;;;2.30;;
56567;SDS011;42456;49.956;20.004;2023-07-28T04:42:50;3.90;;;2.40;;
56567;SDS011;42456;49.956;20.004;2023-07-28T04:45:20;3.60;;;2.50;;
56567;SDS011;42456;49.956;20.004;2023-07-28T04:47:46;4.10;;;2.60;;
56567;SDS011;42456;49.956;20.004;2023-07-28T04:50:13;3.10;;;2.30;;
56567;SDS011;42456;49.956;20.004;2023-07-28T04:52:40;4.60;;;2.70;;
56567;SDS011;42456;49.956;20.004;2023-07-28T04:55:07;3.50;;;2.50;;
56567;SDS011;42456;49.956;20.004;2023-07-28T04:57:34;6.80;;;2.40;;
56567;SDS011;42456;49.956;20.004;2023-07-28T05:00:01;5.00;;;2.40;;
56567;SDS011;42456;49.956;20.004;2023-07-28T05:02:28;5.10;;;2.30;;
56567;SDS011;42456;49.956;20.004;2023-07-28T05:04:55;3.30;;;2.50;;
56567;SDS011;42456;49.956;20.004;2023-07-28T05:07:23;3.40;;;2.50;;
56567;SDS011;42456;49.956;20.004;2023-07-28T05:09:49;4.00;;;2.40;;
56567;SDS011;42456;49.956;20.004;2023-07-28T05:12:16;3.00;;;2.40;;
56567;SDS011;42456;49.956;20.004;2023-07-28T05:14:43;3.80;;;2.30;;
56567;SDS011;42456;49.956;20.004;2023-07-28T05:17:10;4.20;;;2.50;;
56567;SDS011;42456;49.956;20.004;2023-07-28T05:19:37;3.80;;;2.40;;
56567;SDS011;42456;49.956;20.004;2023-07-28T05:22:04;8.40;;;2.90;;
56567;SDS011;42456;49.956;20.004;2023-07-28T05:24:33;7.00;;;2.80;;
56567;SDS011;42456;49.956;20.004;2023-07-28T05:27:00;5.00;;;2.40;;
56567;SDS011;42456;49.956;20.004;2023-07-28T05:29:27;3.50;;;2.20;;
56567;SDS011;42456;49.956;20.004;2023-07-28T05:31:54;4.60;;;2.50;;
56567;SDS011;42456;49.956;20.004;2023-07-28T05:34:21;3.40;;;2.60;;
56567;SDS011;42456;49.956;20.004;2023-07-28T05:36:48;4.10;;;2.60;;
56567;SDS011;42456;49.956;20.004;2023-07-28T05:39:15;3.80;;;2.50;;
56567;SDS011;42456;49.956;20.004;2023-07-28T05:41:41;3.30;;;2.40;;
56567;SDS011;42456;49.956;20.004;2023-07-28T05:44:08;4.00;;;2.50;;
56567;SDS011;42456;49.956;20.004;2023-07-28T05:46:35;4.90;;;2.60;;
56567;SDS011;42456;49.956;20.004;2023-07-28T05:49:02;5.20;;;2.70;;
56567;SDS011;42456;49.956;20.004;2023-07-28T05:51:29;5.80;;;2.70;;
56567;SDS011;42456;49.956;20.004;2023-07-28T05:53:55;3.80;;;2.70;;
56567;SDS011;42456;49.956;20.004;2023-07-28T05:56:23;4.70;;;2.30;;
56567;SDS011;42456;49.956;20.004;2023-07-28T05:58:50;3.50;;;2.70;;
56567;SDS011;42456;49.956;20.004;2023-07-28T06:01:17;3.50;;;2.50;;
56567;SDS011;42456;49.956;20.004;2023-07-28T06:03:45;5.10;;;2.40;;
56567;SDS011;42456;49.956;20.004;2023-07-28T06:06:12;5.90;;;2.70;;
56567;SDS011;42456;49.956;20.004;2023-07-28T06:08:39;5.70;;;2.50;;
56567;SDS011;42456;49.956;20.004;2023-07-28T06:11:06;4.10;;;2.80;;
56567;SDS011;42456;49.956;20.004;2023-07-28T06:13:33;3.10;;;2.30;;
56567;SDS011;42456;49.956;20.004;2023-07-28T06:16:00;4.70;;;2.20;;
56567;SDS011;42456;49.956;20.004;2023-07-28T06:18:28;5.40;;;2.40;;
56567;SDS011;42456;49.956;20.004;2023-07-28T06:20:55;5.90;;;2.50;;
56567;SDS011;42456;49.956;20.004;2023-07-28T06:23:22;4.60;;;2.30;;
56567;SDS011;42456;49.956;20.004;2023-07-28T06:25:50;5.80;;;2.50;;
56567;SDS011;42456;49.956;20.004;2023-07-28T06:28:17;4.60;;;2.20;;
56567;SDS011;42456;49.956;20.004;2023-07-28T06:30:44;5.20;;;2.30;;
56567;SDS011;42456;49.956;20.004;2023-07-28T06:33:11;5.00;;;2.50;;
56567;SDS011;42456;49.956;20.004;2023-07-28T06:35:38;4.70;;;2.40;;
56567;SDS011;42456;49.956;20.004;2023-07-28T06:38:06;4.20;;;2.70;;
56567;SDS011;42456;49.956;20.004;2023-07-28T06:40:33;3.50;;;2.50;;
56567;SDS011;42456;49.956;20.004;2023-07-28T06:42:59;5.30;;;2.50;;
56567;SDS011;42456;49.956;20.004;2023-07-28T06:45:26;4.50;;;2.30;;
56567;SDS011;42456;49.956;20.004;2023-07-28T06:47:53;4.20;;;2.30;;
56567;SDS011;42456;49.956;20.004;2023-07-28T06:50:20;3.60;;;2.30;;
56567;SDS011;42456;49.956;20.004;2023-07-28T06:52:47;4.50;;;2.70;;
56567;SDS011;42456;49.956;20.004;2023-07-28T06:55:15;3.60;;;2.50;;
56567;SDS011;42456;49.956;20.004;2023-07-28T06:57:43;4.80;;;2.40;;
56567;SDS011;42456;49.956;20.004;2023-07-28T07:00:10;3.90;;;2.70;;
56567;SDS011;42456;49.956;20.004;2023-07-28T07:02:38;4.80;;;2.50;;
56567;SDS011;42456;49.956;20.004;2023-07-28T07:05:06;4.40;;;2.70;;
56567;SDS011;42456;49.956;20.004;2023-07-28T07:07:34;4.50;;;2.50;;
56567;SDS011;42456;49.956;20.004;2023-07-28T07:10:01;4.30;;;2.70;;
56567;SDS011;42456;49.956;20.004;2023-07-28T07:12:28;4.30;;;2.50;;
56567;SDS011;42456;49.956;20.004;2023-07-28T07:14:55;3.70;;;2.50;;
56567;SDS011;42456;49.956;20.004;2023-07-28T07:17:22;5.60;;;2.60;;
56567;SDS011;42456;49.956;20.004;2023-07-28T07:19:49;4.40;;;2.30;;
56567;SDS011;42456;49.956;20.004;2023-07-28T07:22:16;4.50;;;2.80;;
56567;SDS011;42456;49.956;20.004;2023-07-28T07:24:43;3.00;;;2.40;;
56567;SDS011;42456;49.956;20.004;2023-07-28T07:27:10;3.70;;;2.80;;
56567;SDS011;42456;49.956;20.004;2023-07-28T07:29:38;6.70;;;2.80;;
56567;SDS011;42456;49.956;20.004;2023-07-28T07:32:05;7.00;;;2.50;;
56567;SDS011;42456;49.956;20.004;2023-07-28T07:34:34;5.50;;;2.70;;
56567;SDS011;42456;49.956;20.004;2023-07-28T07:37:03;4.00;;;2.70;;
56567;SDS011;42456;49.956;20.004;2023-07-28T07:39:31;4.40;;;2.70;;
56567;SDS011;42456;49.956;20.004;2023-07-28T07:41:58;5.60;;;2.60;;
56567;SDS011;42456;49.956;20.004;2023-07-28T07:44:26;4.60;;;2.60;;
56567;SDS011;42456;49.956;20.004;2023-07-28T07:46:53;4.40;;;2.50;;
56567;SDS011;42456;49.956;20.004;2023-07-28T07:49:35;4.10;;;2.40;;
56567;SDS011;42456;49.956;20.004;2023-07-28T07:52:02;5.30;;;2.50;;
56567;SDS011;42456;49.956;20.004;2023-07-28T07:54:29;3.40;;;2.70;;
56567;SDS011;42456;49.956;20.004;2023-07-28T07:56:56;3.60;;;2.40;;
56567;SDS011;42456;49.956;20.004;2023-07-28T07:59:23;3.90;;;2.60;;
56567;SDS011;42456;49.956;20.004;2023-07-28T08:01:54;3.10;;;2.40;;
56567;SDS011;42456;49.956;20.004;2023-07-28T08:04:21;4.10;;;2.50;;
56567;SDS011;42456;49.956;20.004;2023-07-28T08:06:48;5.80;;;2.60;;
56567;SDS011;42456;49.956;20.004;2023-07-28T08:09:16;3.90;;;2.40;;
56567;SDS011;42456;49.956;20.004;2023-07-28T08:11:43;5.30;;;2.30;;
56567;SDS011;42456;49.956;20.004;2023-07-28T08:14:10;2.70;;;2.10;;
56567;SDS011;42456;49.956;20.004;2023-07-28T08:16:37;3.90;;;2.50;;
56567;SDS011;42456;49.956;20.004;2023-07-28T08:19:04;3.70;;;2.60;;
56567;SDS011;42456;49.956;20.004;2023-07-28T08:21:31;2.80;;;2.30;;
56567;SDS011;42456;49.956;20.004;2023-07-28T08:24:03;4.50;;;2.40;;
56567;SDS011;42456;49.956;20.004;2023-07-28T08:26:31;4.20;;;2.80;;
56567;SDS011;42456;49.956;20.004;2023-07-28T08:28:57;3.40;;;2.40;;
56567;SDS011;42456;49.956;20.004;2023-07-28T08:31:25;2.70;;;2.20;;
56567;SDS011;42456;49.956;20.004;2023-07-28T08:33:52;4.90;;;2.50;;
56567;SDS011;42456;49.956;20.004;2023-07-28T08:36:19;3.70;;;2.50;;
56567;SDS011;42456;49.956;20.004;2023-07-28T08:38:46;5.40;;;2.50;;
56567;SDS011;42456;49.956;20.004;2023-07-28T08:41:12;4.10;;;2.40;;
56567;SDS011;42456;49.956;20.004;2023-07-28T08:43:40;2.70;;;2.20;;
56567;SDS011;42456;49.956;20.004;2023-07-28T08:46:08;3.50;;;2.40;;
56567;SDS011;42456;49.956;20.004;2023-07-28T08:48:36;3.70;;;2.30;;
56567;SDS011;42456;49.956;20.004;2023-07-28T08:51:03;3.30;;;2.30;;
56567;SDS011;42456;49.956;20.004;2023-07-28T08:53:34;5.30;;;2.50;;
56567;SDS011;42456;49.956;20.004;2023-07-28T08:56:01;2.20;;;2.00;;
56567;SDS011;42456;49.956;20.004;2023-07-28T08:58:32;3.70;;;2.30;;
56567;SDS011;42456;49.956;20.004;2023-07-28T09:00:59;6.30;;;2.40;;
56567;SDS011;42456;49.956;20.004;2023-07-28T09:03:31;4.60;;;2.20;;
56567;SDS011;42456;49.956;20.004;2023-07-28T09:06:00;3.10;;;2.10;;
56567;SDS011;42456;49.956;20.004;2023-07-28T09:08:31;4.50;;;2.10;;
56567;SDS011;42456;49.956;20.004;2023-07-28T09:11:01;2.50;;;2.00;;
56567;SDS011;42456;49.956;20.004;2023-07-28T09:13:38;2.30;;;2.10;;
56567;SDS011;42456;49.956;20.004;2023-07-28T09:18:45;3.30;;;2.00;;
56567;SDS011;42456;49.956;20.004;2023-07-28T09:21:19;2.90;;;2.10;;
56567;SDS011;42456;49.956;20.004;2023-07-28T09:23:50;3.50;;;2.30;;
56567;SDS011;42456;49.956;20.004;2023-07-28T09:26:17;2.20;;;2.00;;
56567;SDS011;42456;49.956;20.004;2023-07-28T09:28:44;2.90;;;2.50;;
56567;SDS011;42456;49.956;20.004;2023-07-28T09:31:12;3.70;;;2.40;;
56567;SDS011;42456;49.956;20.004;2023-07-28T09:33:40;2.40;;;2.20;;
56567;SDS011;42456;49.956;20.004;2023-07-28T09:36:14;3.10;;;2.30;;
56567;SDS011;42456;49.956;20.004;2023-07-28T09:38:44;4.20;;;2.50;;
56567;SDS011;42456;49.956;20.004;2023-07-28T09:41:12;3.30;;;2.40;;
56567;SDS011;42456;49.956;20.004;2023-07-28T09:43:40;3.10;;;2.40;;
56567;SDS011;42456;49.956;20.004;2023-07-28T09:46:08;4.60;;;2.40;;
56567;SDS011;42456;49.956;20.004;2023-07-28T09:48:39;3.70;;;2.50;;
56567;SDS011;42456;49.956;20.004;2023-07-28T09:51:13;2.80;;;2.30;;
56567;SDS011;42456;49.956;20.004;2023-07-28T09:53:46;4.60;;;2.40;;
56567;SDS011;42456;49.956;20.004;2023-07-28T09:56:15;3.30;;;2.60;;
56567;SDS011;42456;49.956;20.004;2023-07-28T09:58:44;5.10;;;2.60;;
56567;SDS011;42456;49.956;20.004;2023-07-28T10:01:17;3.60;;;2.50;;
56567;SDS011;42456;49.956;20.004;2023-07-28T10:03:45;2.90;;;2.60;;
56567;SDS011;42456;49.956;20.004;2023-07-28T10:06:14;3.80;;;2.30;;
56567;SDS011;42456;49.956;20.004;2023-07-28T10:11:17;3.70;;;2.40;;
56567;SDS011;42456;49.956;20.004;2023-07-28T10:13:45;3.40;;;2.40;;
56567;SDS011;42456;49.956;20.004;2023-07-28T10:16:13;4.70;;;2.40;;
56567;SDS011;42456;49.956;20.004;2023-07-28T10:18:53;3.10;;;2.60;;
56567;SDS011;42456;49.956;20.004;2023-07-28T10:21:21;3.20;;;2.30;;
56567;SDS011;42456;49.956;20.004;2023-07-28T10:23:54;3.50;;;2.50;;
56567;SDS011;42456;49.956;20.004;2023-07-28T10:29:13;2.70;;;2.10;;
56567;SDS011;42456;49.956;20.004;2023-07-28T10:34:19;2.00;;;1.90;;
56567;SDS011;42456;49.956;20.004;2023-07-28T10:39:25;3.50;;;2.00;;
56567;SDS011;42456;49.956;20.004;2023-07-28T10:42:00;2.50;;;2.10;;
56567;SDS011;42456;49.956;20.004;2023-07-28T10:44:30;3.30;;;2.20;;
56567;SDS011;42456;49.956;20.004;2023-07-28T10:46:57;3.70;;;1.90;;
56567;SDS011;42456;49.956;20.004;2023-07-28T10:49:24;2.40;;;1.90;;
56567;SDS011;42456;49.956;20.004;2023-07-28T10:51:52;3.00;;;1.90;;
56567;SDS011;42456;49.956;20.004;2023-07-28T10:54:19;2.00;;;1.80;;
56567;SDS011;42456;49.956;20.004;2023-07-28T10:56:47;1.20;;;1.20;;
56567;SDS011;42456;49.956;20.004;2023-07-28T10:59:15;3.60;;;1.50;;
56567;SDS011;42456;49.956;20.004;2023-07-28T11:01:42;1.70;;;1.60;;
56567;SDS011;42456;49.956;20.004;2023-07-28T11:04:17;1.50;;;1.40;;
56567;SDS011;42456;49.956;20.004;2023-07-28T11:06:48;1.30;;;1.20;;
56567;SDS011;42456;49.956;20.004;2023-07-28T11:09:17;1.40;;;1.30;;
56567;SDS011;42456;49.956;20.004;2023-07-28T11:11:45;3.50;;;1.20;;
56567;SDS011;42456;49.956;20.004;2023-07-28T11:14:14;1.70;;;1.20;;
56567;SDS011;42456;49.956;20.004;2023-07-28T11:16:43;1.30;;;0.90;;
56567;SDS011;42456;49.956;20.004;2023-07-28T11:19:12;2.20;;;1.20;;
56567;SDS011;42456;49.956;20.004;2023-07-28T11:21:44;1.00;;;1.00;;
56567;SDS011;42456;49.956;20.004;2023-07-28T11:24:20;1.30;;;1.20;;
56567;SDS011;42456;49.956;20.004;2023-07-28T11:26:48;2.80;;;1.20;;
56567;SDS011;42456;49.956;20.004;2023-07-28T11:29:17;2.20;;;1.60;;
56567;SDS011;42456;49.956;20.004;2023-07-28T11:31:45;2.00;;;1.40;;
56567;SDS011;42456;49.956;20.004;2023-07-28T11:36:42;3.60;;;1.60;;
56567;SDS011;42456;49.956;20.004;2023-07-28T11:39:09;1.60;;;1.50;;
56567;SDS011;42456;49.956;20.004;2023-07-28T11:41:38;2.90;;;1.30;;
56567;SDS011;42456;49.956;20.004;2023-07-28T11:44:06;1.80;;;1.60;;
56567;SDS011;42456;49.956;20.004;2023-07-28T11:49:17;2.60;;;1.40;;
56567;SDS011;42456;49.956;20.004;2023-07-28T11:51:54;1.30;;;1.20;;
56567;SDS011;42456;49.956;20.004;2023-07-28T11:54:24;1.20;;;1.10;;
56567;SDS011;42456;49.956;20.004;2023-07-28T11:56:54;1.50;;;1.40;;
56567;SDS011;42456;49.956;20.004;2023-07-28T11:59:23;1.80;;;1.30;;
56567;SDS011;42456;49.956;20.004;2023-07-28T12:04:35;1.10;;;0.80;;
56567;SDS011;42456;49.956;20.004;2023-07-28T12:07:12;1.20;;;1.10;;
56567;SDS011;42456;49.956;20.004;2023-07-28T12:12:28;2.50;;;1.30;;
56567;SDS011;42456;49.956;20.004;2023-07-28T12:15:21;1.30;;;1.20;;
56567;SDS011;42456;49.956;20.004;2023-07-28T12:20:41;1.90;;;1.30;;
56567;SDS011;42456;49.956;20.004;2023-07-28T12:23:17;1.50;;;1.40;;
56567;SDS011;42456;49.956;20.004;2023-07-28T12:25:49;1.50;;;1.40;;
56567;SDS011;42456;49.956;20.004;2023-07-28T12:28:22;1.40;;;1.30;;
56567;SDS011;42456;49.956;20.004;2023-07-28T12:30:49;2.00;;;1.40;;
56567;SDS011;42456;49.956;20.004;2023-07-28T12:33:19;1.30;;;1.00;;
56567;SDS011;42456;49.956;20.004;2023-07-28T12:38:16;2.40;;;1.30;;
56567;SDS011;42456;49.956;20.004;2023-07-28T12:40:46;1.20;;;1.10;;
56567;SDS011;42456;49.956;20.004;2023-07-28T12:43:17;1.30;;;1.20;;
56567;SDS011;42456;49.956;20.004;2023-07-28T12:45:47;1.50;;;1.40;;
56567;SDS011;42456;49.956;20.004;2023-07-28T12:48:17;1.40;;;1.30;;
56567;SDS011;42456;49.956;20.004;2023-07-28T12:50:47;1.70;;;1.40;;
56567;SDS011;42456;49.956;20.004;2023-07-28T12:53:14;1.50;;;1.30;;
56567;SDS011;42456;49.956;20.004;2023-07-28T12:55:48;1.50;;;1.40;;
56567;SDS011;42456;49.956;20.004;2023-07-28T12:58:18;3.10;;;2.40;;
56567;SDS011;42456;49.956;20.004;2023-07-28T13:00:48;1.90;;;1.80;;
56567;SDS011;42456;49.956;20.004;2023-07-28T13:03:17;1.90;;;1.40;;
56567;SDS011;42456;49.956;20.004;2023-07-28T13:05:45;1.10;;;1.10;;
56567;SDS011;42456;49.956;20.004;2023-07-28T13:08:15;1.10;;;0.90;;
56567;SDS011;42456;49.956;20.004;2023-07-28T13:10:43;0.70;;;0.70;;
56567;SDS011;42456;49.956;20.004;2023-07-28T13:13:13;1.90;;;0.80;;
56567;SDS011;42456;49.956;20.004;2023-07-28T13:15:40;1.40;;;0.90;;
56567;SDS011;42456;49.956;20.004;2023-07-28T13:18:08;2.60;;;1.20;;
56567;SDS011;42456;49.956;20.004;2023-07-28T13:20:35;1.00;;;0.90;;
56567;SDS011;42456;49.956;20.004;2023-07-28T13:23:03;1.00;;;0.90;;
56567;SDS011;42456;49.956;20.004;2023-07-28T13:25:30;1.00;;;1.00;;
56567;SDS011;42456;49.956;20.004;2023-07-28T13:27:57;1.00;;;1.00;;
56567;SDS011;42456;49.956;20.004;2023-07-28T13:30:24;0.70;;;0.70;;
56567;SDS011;42456;49.956;20.004;2023-07-28T13:32:55;1.00;;;0.90;;
56567;SDS011;42456;49.956;20.004;2023-07-28T13:35:22;0.80;;;0.80;;
56567;SDS011;42456;49.956;20.004;2023-07-28T13:37:49;0.90;;;0.70;;
56567;SDS011;42456;49.956;20.004;2023-07-28T13:40:16;1.30;;;0.90;;
56567;SDS011;42456;49.956;20.004;2023-07-28T13:42:57;0.90;;;0.80;;
56567;SDS011;42456;49.956;20.004;2023-07-28T13:45:24;1.00;;;1.00;;
56567;SDS011;42456;49.956;20.004;2023-07-28T13:47:51;4.80;;;1.00;;
56567;SDS011;42456;49.956;20.004;2023-07-28T13:50:18;1.30;;;1.10;;
56567;SDS011;42456;49.956;20.004;2023-07-28T13:52:45;1.20;;;1.10;;
56567;SDS011;42456;49.956;20.004;2023-07-28T13:55:16;1.00;;;0.90;;
56567;SDS011;42456;49.956;20.004;2023-07-28T13:57:43;1.10;;;0.90;;
56567;SDS011;42456;49.956;20.004;2023-07-28T14:00:10;0.90;;;0.80;;
56567;SDS011;42456;49.956;20.004;2023-07-28T14:02:38;1.30;;;1.20;;
56567;SDS011;42456;49.956;20.004;2023-07-28T14:05:07;2.20;;;0.80;;
56567;SDS011;42456;49.956;20.004;2023-07-28T14:07:48;1.90;;;0.80;;
56567;SDS011;42456;49.956;20.004;2023-07-28T14:10:15;0.50;;;0.50;;
56567;SDS011;42456;49.956;20.004;2023-07-28T14:12:45;0.90;;;0.90;;
56567;SDS011;42456;49.956;20.004;2023-07-28T14:15:12;1.10;;;0.90;;
56567;SDS011;42456;49.956;20.004;2023-07-28T14:17:40;1.00;;;0.90;;
56567;SDS011;42456;49.956;20.004;2023-07-28T14:20:07;1.90;;;1.10;;
56567;SDS011;42456;49.956;20.004;2023-07-28T14:22:35;2.20;;;1.00;;
56567;SDS011;42456;49.956;20.004;2023-07-28T14:25:02;1.20;;;1.00;;
56567;SDS011;42456;49.956;20.004;2023-07-28T14:27:30;1.70;;;1.00;;
56567;SDS011;42456;49.956;20.004;2023-07-28T14:29:57;1.30;;;1.20;;
56567;SDS011;42456;49.956;20.004;2023-07-28T14:32:24;2.30;;;1.00;;
56567;SDS011;42456;49.956;20.004;2023-07-28T14:34:52;1.10;;;1.10;;
56567;SDS011;42456;49.956;20.004;2023-07-28T14:37:19;1.50;;;1.40;;
56567;SDS011;42456;49.956;20.004;2023-07-28T14:42:15;1.70;;;1.00;;
56567;SDS011;42456;49.956;20.004;2023-07-28T14:44:42;0.90;;;0.90;;
56567;SDS011;42456;49.956;20.004;2023-07-28T14:47:09;1.30;;;1.20;;
56567;SDS011;42456;49.956;20.004;2023-07-28T14:49:36;1.00;;;1.00;;
56567;SDS011;42456;49.956;20.004;2023-07-28T14:52:03;2.50;;;1.30;;
56567;SDS011;42456;49.956;20.004;2023-07-28T14:54:30;1.40;;;0.90;;
56567;SDS011;42456;49.956;20.004;2023-07-28T14:56:57;3.80;;;1.10;;
56567;SDS011;42456;49.956;20.004;2023-07-28T14:59:24;0.90;;;0.90;;
56567;SDS011;42456;49.956;20.004;2023-07-28T15:01:51;1.20;;;1.10;;
56567;SDS011;42456;49.956;20.004;2023-07-28T15:04:18;1.30;;;1.20;;
56567;SDS011;42456;49.956;20.004;2023-07-28T15:06:45;1.60;;;1.20;;
56567;SDS011;42456;49.956;20.004;2023-07-28T15:09:12;1.30;;;1.10;;
56567;SDS011;42456;49.956;20.004;2023-07-28T15:11:39;1.70;;;1.30;;
56567;SDS011;42456;49.956;20.004;2023-07-28T15:14:06;2.30;;;1.60;;
56567;SDS011;42456;49.956;20.004;2023-07-28T15:16:33;1.20;;;1.10;;
56567;SDS011;42456;49.956;20.004;2023-07-28T15:19:00;2.20;;;1.10;;